CheckWX is a tool to help pilots better visualize weather data.  It is not intended as a substitute for an official pre-flight weather briefing.

09:23:43 UTC

KFFO TAF
Wright-Patterson AFB Airport
Dayton, Ohio, USA
TAF KFFO 051100Z 0511/0617 VRB06KT 9999 FEW120 QNH2991INS TX33/0521Z TN21/0511Z

Jul-5@
11:00 UTC

Jul-5 @ 11:00 UTC

Jul-6@
17:00 UTC

Jul-6 @ 17:00 UTC

TAF KFFO 051100Z 0511/0617 VRB06KT 9999 FEW120 QNH2991INS TX33/0521Z TN21/0511Z
Wind
  • Variable at 6 KTS
Cloud Levels
  • Few at 12,000' AGL